sensor_id;sensor_type;location;lat;lon;timestamp;pressure;altitude;pressure_sealevel;temperature;humidity
66176;BME280;52977;44.816;20.538;2023-05-24T00:01:57;99354.97;;;22.01;56.92
66176;BME280;52977;44.816;20.538;2023-05-24T00:04:23;99299.66;;;21.61;56.93
66176;BME280;52977;44.816;20.538;2023-05-24T00:06:50;99344.94;;;21.47;58.93
66176;BME280;52977;44.816;20.538;2023-05-24T00:09:16;99361.59;;;21.47;60.24
66176;BME280;52977;44.816;20.538;2023-05-24T00:11:43;99372.44;;;21.16;62.65
66176;BME280;52977;44.816;20.538;2023-05-24T00:14:09;99353.88;;;21.03;62.85
66176;BME280;52977;44.816;20.538;2023-05-24T00:16:35;99337.66;;;20.97;63.07
66176;BME280;52977;44.816;20.538;2023-05-24T00:19:01;99324.59;;;20.91;63.45
66176;BME280;52977;44.816;20.538;2023-05-24T00:21:27;99352.97;;;21.24;63.55
66176;BME280;52977;44.816;20.538;2023-05-24T00:23:53;99344.66;;;21.24;63.69
66176;BME280;52977;44.816;20.538;2023-05-24T00:26:20;99342.72;;;21.13;63.85
66176;BME280;52977;44.816;20.538;2023-05-24T00:28:54;99352.19;;;21.27;63.80
66176;BME280;52977;44.816;20.538;2023-05-24T00:31:20;99352.56;;;21.32;63.63
66176;BME280;52977;44.816;20.538;2023-05-24T00:33:46;99350.19;;;21.31;63.86
66176;BME280;52977;44.816;20.538;2023-05-24T00:36:12;99341.09;;;21.27;63.80
66176;BME280;52977;44.816;20.538;2023-05-24T00:38:38;99339.63;;;20.97;64.45
66176;BME280;52977;44.816;20.538;2023-05-24T00:41:04;99347.56;;;20.91;65.14
66176;BME280;52977;44.816;20.538;2023-05-24T00:43:30;99348.34;;;20.99;64.88
66176;BME280;52977;44.816;20.538;2023-05-24T00:48:40;99352.63;;;21.18;64.31
66176;BME280;52977;44.816;20.538;2023-05-24T00:51:06;99349.88;;;21.14;64.44
66176;BME280;52977;44.816;20.538;2023-05-24T00:53:32;99358.59;;;21.13;64.42
66176;BME280;52977;44.816;20.538;2023-05-24T00:56:00;99344.38;;;20.93;64.79
66176;BME280;52977;44.816;20.538;2023-05-24T00:58:27;99356.66;;;20.95;65.12
66176;BME280;52977;44.816;20.538;2023-05-24T01:00:59;99324.25;;;20.78;65.28
66176;BME280;52977;44.816;20.538;2023-05-24T01:03:26;99347.19;;;20.89;65.76
66176;BME280;52977;44.816;20.538;2023-05-24T01:06:12;99342.03;;;20.95;65.02
66176;BME280;52977;44.816;20.538;2023-05-24T01:16:41;99359.78;;;21.08;64.61
66176;BME280;52977;44.816;20.538;2023-05-24T01:25:06;99309.59;;;20.70;65.40
66176;BME280;52977;44.816;20.538;2023-05-24T01:27:36;99348.75;;;20.90;66.00
66176;BME280;52977;44.816;20.538;2023-05-24T01:30:03;99346.78;;;20.87;65.94
66176;BME280;52977;44.816;20.538;2023-05-24T01:32:30;99338.91;;;20.82;65.94
66176;BME280;52977;44.816;20.538;2023-05-24T01:34:56;99343.22;;;20.87;65.48
66176;BME280;52977;44.816;20.538;2023-05-24T01:37:22;99351.94;;;20.92;65.59
66176;BME280;52977;44.816;20.538;2023-05-24T01:39:48;99346.03;;;20.79;66.31
66176;BME280;52977;44.816;20.538;2023-05-24T01:42:29;99311.59;;;20.48;66.56
66176;BME280;52977;44.816;20.538;2023-05-24T01:45:17;99350.38;;;20.84;66.19
66176;BME280;52977;44.816;20.538;2023-05-24T01:50:37;99322.25;;;20.60;66.29
66176;BME280;52977;44.816;20.538;2023-05-24T01:53:08;99344.44;;;20.82;66.68
66176;BME280;52977;44.816;20.538;2023-05-24T01:55:36;99289.41;;;20.52;66.82
66176;BME280;52977;44.816;20.538;2023-05-24T01:58:05;99348.38;;;20.85;67.21
66176;BME280;52977;44.816;20.538;2023-05-24T02:00:32;99313.56;;;20.55;67.42
66176;BME280;52977;44.816;20.538;2023-05-24T02:03:00;99340.88;;;20.74;67.73
66176;BME280;52977;44.816;20.538;2023-05-24T02:05:27;99352.38;;;20.73;68.20
66176;BME280;52977;44.816;20.538;2023-05-24T02:07:54;99350.41;;;20.62;68.56
66176;BME280;52977;44.816;20.538;2023-05-24T02:10:22;99349.22;;;20.49;68.17
66176;BME280;52977;44.816;20.538;2023-05-24T02:12:47;99381.31;;;20.32;73.85
66176;BME280;52977;44.816;20.538;2023-05-24T02:15:13;99352.00;;;19.98;75.65
66176;BME280;52977;44.816;20.538;2023-05-24T02:17:40;99352.72;;;19.70;77.26
66176;BME280;52977;44.816;20.538;2023-05-24T02:20:08;99360.22;;;19.59;78.71
66176;BME280;52977;44.816;20.538;2023-05-24T02:22:34;99385.56;;;19.68;79.10
66176;BME280;52977;44.816;20.538;2023-05-24T02:24:59;99377.13;;;19.32;81.06
66176;BME280;52977;44.816;20.538;2023-05-24T02:27:26;99377.53;;;19.34;81.24
66176;BME280;52977;44.816;20.538;2023-05-24T02:29:52;99318.97;;;19.14;80.62
66176;BME280;52977;44.816;20.538;2023-05-24T02:32:17;99376.91;;;19.84;79.78
66176;BME280;52977;44.816;20.538;2023-05-24T02:34:43;99375.31;;;19.76;79.96
66176;BME280;52977;44.816;20.538;2023-05-24T02:37:09;99338.81;;;19.45;79.97
66176;BME280;52977;44.816;20.538;2023-05-24T02:39:40;99407.69;;;19.61;81.25
66176;BME280;52977;44.816;20.538;2023-05-24T02:42:06;99379.53;;;19.37;83.48
66176;BME280;52977;44.816;20.538;2023-05-24T02:44:33;99351.81;;;19.23;83.13
66176;BME280;52977;44.816;20.538;2023-05-24T02:46:59;99381.38;;;19.11;85.38
66176;BME280;52977;44.816;20.538;2023-05-24T02:49:24;99392.00;;;18.95;87.31
66176;BME280;52977;44.816;20.538;2023-05-24T02:51:50;99387.50;;;18.76;89.28
66176;BME280;52977;44.816;20.538;2023-05-24T02:54:16;99393.84;;;18.80;88.89
66176;BME280;52977;44.816;20.538;2023-05-24T02:56:42;99402.72;;;18.52;92.22
66176;BME280;52977;44.816;20.538;2023-05-24T02:59:09;99367.63;;;18.56;91.25
66176;BME280;52977;44.816;20.538;2023-05-24T03:01:36;99368.25;;;18.90;88.44
66176;BME280;52977;44.816;20.538;2023-05-24T03:04:03;99383.00;;;19.16;87.21
66176;BME280;52977;44.816;20.538;2023-05-24T03:06:29;99399.59;;;19.16;87.43
66176;BME280;52977;44.816;20.538;2023-05-24T03:08:56;99364.94;;;18.70;89.36
66176;BME280;52977;44.816;20.538;2023-05-24T03:11:24;99391.59;;;19.00;88.91
66176;BME280;52977;44.816;20.538;2023-05-24T03:13:51;99390.84;;;19.07;88.12
66176;BME280;52977;44.816;20.538;2023-05-24T03:16:17;99357.84;;;18.73;89.00
66176;BME280;52977;44.816;20.538;2023-05-24T03:18:46;99373.91;;;19.19;86.89
66176;BME280;52977;44.816;20.538;2023-05-24T03:21:15;99385.88;;;19.49;85.70
66176;BME280;52977;44.816;20.538;2023-05-24T03:23:41;99390.28;;;19.57;85.34
66176;BME280;52977;44.816;20.538;2023-05-24T03:26:06;99394.63;;;19.61;83.73
66176;BME280;52977;44.816;20.538;2023-05-24T03:28:32;99372.44;;;19.47;83.05
66176;BME280;52977;44.816;20.538;2023-05-24T03:30:58;99386.31;;;19.54;83.35
66176;BME280;52977;44.816;20.538;2023-05-24T03:33:24;99355.41;;;19.38;82.58
66176;BME280;52977;44.816;20.538;2023-05-24T03:35:50;99386.31;;;19.61;81.93
66176;BME280;52977;44.816;20.538;2023-05-24T03:38:16;99376.81;;;19.59;81.63
66176;BME280;52977;44.816;20.538;2023-05-24T03:40:44;99333.22;;;19.23;81.48
66176;BME280;52977;44.816;20.538;2023-05-24T03:43:17;99355.41;;;19.38;81.16
66176;BME280;52977;44.816;20.538;2023-05-24T03:45:59;99397.44;;;19.72;80.13
66176;BME280;52977;44.816;20.538;2023-05-24T03:48:25;99397.44;;;19.76;79.65
66176;BME280;52977;44.816;20.538;2023-05-24T03:50:51;99397.84;;;19.78;79.04
66176;BME280;52977;44.816;20.538;2023-05-24T03:53:19;99360.22;;;19.55;78.74
66176;BME280;52977;44.816;20.538;2023-05-24T03:55:45;99392.72;;;19.80;78.42
66176;BME280;52977;44.816;20.538;2023-05-24T03:58:11;99332.91;;;19.43;78.04
66176;BME280;52977;44.816;20.538;2023-05-24T04:00:37;99357.06;;;19.64;77.67
66176;BME280;52977;44.816;20.538;2023-05-24T04:03:03;99382.06;;;19.82;77.38
66176;BME280;52977;44.816;20.538;2023-05-24T04:05:32;99377.66;;;19.74;77.63
66176;BME280;52977;44.816;20.538;2023-05-24T04:07:58;99356.25;;;19.56;77.51
66176;BME280;52977;44.816;20.538;2023-05-24T04:10:25;99406.59;;;19.87;77.78
66176;BME280;52977;44.816;20.538;2023-05-24T04:12:51;99395.91;;;19.89;77.55
66176;BME280;52977;44.816;20.538;2023-05-24T04:15:17;99398.28;;;19.91;77.79
66176;BME280;52977;44.816;20.538;2023-05-24T04:17:44;99376.09;;;19.80;77.77
66176;BME280;52977;44.816;20.538;2023-05-24T04:20:11;99393.94;;;19.93;77.95
66176;BME280;52977;44.816;20.538;2023-05-24T04:22:38;99398.69;;;19.96;77.79
66176;BME280;52977;44.816;20.538;2023-05-24T04:25:04;99334.13;;;19.67;77.61
66176;BME280;52977;44.816;20.538;2023-05-24T04:27:31;99380.47;;;19.88;77.02
66176;BME280;52977;44.816;20.538;2023-05-24T04:29:57;99393.16;;;20.07;77.19
66176;BME280;52977;44.816;20.538;2023-05-24T04:32:23;99379.31;;;20.00;77.85
66176;BME280;52977;44.816;20.538;2023-05-24T04:34:49;99391.59;;;20.10;77.54
66176;BME280;52977;44.816;20.538;2023-05-24T04:37:17;99395.94;;;20.11;77.24
66176;BME280;52977;44.816;20.538;2023-05-24T04:39:44;99395.94;;;20.11;77.44
66176;BME280;52977;44.816;20.538;2023-05-24T04:42:11;99358.72;;;19.83;76.89
66176;BME280;52977;44.816;20.538;2023-05-24T04:44:39;99399.09;;;20.13;76.56
66176;BME280;52977;44.816;20.538;2023-05-24T04:47:05;99401.50;;;20.11;75.91
66176;BME280;52977;44.816;20.538;2023-05-24T04:49:31;99360.69;;;19.83;75.27
66176;BME280;52977;44.816;20.538;2023-05-24T04:51:56;99410.59;;;20.04;80.07
66176;BME280;52977;44.816;20.538;2023-05-24T04:54:22;99393.97;;;20.04;80.25
66176;BME280;52977;44.816;20.538;2023-05-24T04:56:48;99426.03;;;20.27;79.64
66176;BME280;52977;44.816;20.538;2023-05-24T04:59:14;99422.06;;;20.24;80.22
66176;BME280;52977;44.816;20.538;2023-05-24T05:01:39;99428.00;;;20.15;81.12
66176;BME280;52977;44.816;20.538;2023-05-24T05:04:06;99422.44;;;19.90;82.90
66176;BME280;52977;44.816;20.538;2023-05-24T05:06:32;99352.59;;;19.23;85.48
66176;BME280;52977;44.816;20.538;2023-05-24T05:09:04;99409.34;;;19.84;84.91
66176;BME280;52977;44.816;20.538;2023-05-24T05:11:34;99421.66;;;19.97;84.38
66176;BME280;52977;44.816;20.538;2023-05-24T05:14:00;99409.69;;;19.78;83.17
66176;BME280;52977;44.816;20.538;2023-05-24T05:16:26;99403.78;;;19.80;85.13
66176;BME280;52977;44.816;20.538;2023-05-24T05:18:52;99421.66;;;19.97;85.37
66176;BME280;52977;44.816;20.538;2023-05-24T05:21:18;99415.72;;;19.98;85.00
66176;BME280;52977;44.816;20.538;2023-05-24T05:23:44;99380.47;;;19.85;84.59
66176;BME280;52977;44.816;20.538;2023-05-24T05:26:11;99420.47;;;20.23;84.50
66176;BME280;52977;44.816;20.538;2023-05-24T05:28:37;99418.13;;;20.32;84.08
66176;BME280;52977;44.816;20.538;2023-05-24T05:31:03;99380.91;;;20.08;82.87
66176;BME280;52977;44.816;20.538;2023-05-24T05:33:32;99421.28;;;20.38;80.71
66176;BME280;52977;44.816;20.538;2023-05-24T05:35:59;99422.88;;;20.36;81.00
66176;BME280;52977;44.816;20.538;2023-05-24T05:38:25;99423.66;;;20.47;80.31
66176;BME280;52977;44.816;20.538;2023-05-24T05:40:51;99400.31;;;20.19;79.74
66176;BME280;52977;44.816;20.538;2023-05-24T05:43:17;99402.28;;;20.33;79.82
66176;BME280;52977;44.816;20.538;2023-05-24T05:45:43;99421.28;;;20.49;79.81
66176;BME280;52977;44.816;20.538;2023-05-24T05:48:09;99418.91;;;20.51;79.92
66176;BME280;52977;44.816;20.538;2023-05-24T05:50:35;99436.75;;;20.64;80.85
66176;BME280;52977;44.816;20.538;2023-05-24T05:53:01;99400.31;;;20.44;82.80
66176;BME280;52977;44.816;20.538;2023-05-24T05:55:28;99447.47;;;20.70;81.85
66176;BME280;52977;44.816;20.538;2023-05-24T05:57:54;99418.94;;;20.47;86.02
66176;BME280;52977;44.816;20.538;2023-05-24T06:00:21;99444.25;;;20.49;88.89
66176;BME280;52977;44.816;20.538;2023-05-24T06:02:46;99452.19;;;20.65;87.56
66176;BME280;52977;44.816;20.538;2023-05-24T06:05:12;99454.56;;;20.71;86.33
66176;BME280;52977;44.816;20.538;2023-05-24T06:07:37;99464.06;;;20.59;86.22
66176;BME280;52977;44.816;20.538;2023-05-24T06:10:04;99461.31;;;20.52;85.59
66176;BME280;52977;44.816;20.538;2023-05-24T06:12:30;99419.72;;;20.26;83.04
66176;BME280;52977;44.816;20.538;2023-05-24T06:14:56;99442.31;;;20.43;81.91
66176;BME280;52977;44.816;20.538;2023-05-24T06:17:22;99453.78;;;20.45;82.98
66176;BME280;52977;44.816;20.538;2023-05-24T06:19:49;99455.34;;;20.53;82.39
66176;BME280;52977;44.816;20.538;2023-05-24T06:22:18;99412.59;;;20.32;82.46
66176;BME280;52977;44.816;20.538;2023-05-24T06:24:45;99460.91;;;20.68;81.03
66176;BME280;52977;44.816;20.538;2023-05-24T06:27:11;99446.66;;;20.65;80.85
66176;BME280;52977;44.816;20.538;2023-05-24T06:29:37;99447.47;;;20.70;80.91
66176;BME280;52977;44.816;20.538;2023-05-24T06:32:03;99454.59;;;20.78;80.61
66176;BME280;52977;44.816;20.538;2023-05-24T06:34:28;99464.09;;;20.88;80.83
66176;BME280;52977;44.816;20.538;2023-05-24T06:36:54;99452.63;;;20.71;81.25
66176;BME280;52977;44.816;20.538;2023-05-24T06:39:19;99469.66;;;20.70;81.69
66176;BME280;52977;44.816;20.538;2023-05-24T06:41:45;99451.00;;;20.56;80.98
66176;BME280;52977;44.816;20.538;2023-05-24T06:44:11;99467.66;;;20.70;80.47
66176;BME280;52977;44.816;20.538;2023-05-24T06:46:38;99457.31;;;20.63;81.76
66176;BME280;52977;44.816;20.538;2023-05-24T06:49:04;99466.88;;;20.70;82.17
66176;BME280;52977;44.816;20.538;2023-05-24T06:51:30;99431.59;;;20.38;82.24
66176;BME280;52977;44.816;20.538;2023-05-24T06:53:58;99495.00;;;20.72;84.60
66176;BME280;52977;44.816;20.538;2023-05-24T06:56:24;99489.88;;;20.74;84.15
66176;BME280;52977;44.816;20.538;2023-05-24T06:58:51;99489.06;;;20.73;83.55
66176;BME280;52977;44.816;20.538;2023-05-24T07:01:17;99455.34;;;20.60;82.84
66176;BME280;52977;44.816;20.538;2023-05-24T07:03:43;99497.34;;;21.09;82.07
66176;BME280;52977;44.816;20.538;2023-05-24T07:06:09;99457.34;;;20.92;80.76
66176;BME280;52977;44.816;20.538;2023-05-24T07:08:39;99513.22;;;21.20;81.11
66176;BME280;52977;44.816;20.538;2023-05-24T07:11:07;99496.97;;;21.04;78.32
66176;BME280;52977;44.816;20.538;2023-05-24T07:13:34;99490.19;;;20.65;77.50
66176;BME280;52977;44.816;20.538;2023-05-24T07:16:00;99545.72;;;20.76;78.47
66176;BME280;52977;44.816;20.538;2023-05-24T07:18:26;99560.34;;;20.69;79.31
66176;BME280;52977;44.816;20.538;2023-05-24T07:20:53;99562.31;;;20.54;80.34
66176;BME280;52977;44.816;20.538;2023-05-24T07:23:19;99568.63;;;20.40;81.33
66176;BME280;52977;44.816;20.538;2023-05-24T07:25:45;99566.53;;;20.12;83.23
66176;BME280;52977;44.816;20.538;2023-05-24T07:28:11;99595.03;;;20.16;84.74
66176;BME280;52977;44.816;20.538;2023-05-24T07:30:38;99603.72;;;20.07;86.64
66176;BME280;52977;44.816;20.538;2023-05-24T07:33:04;99598.13;;;19.93;88.10
66176;BME280;52977;44.816;20.538;2023-05-24T07:35:29;99607.66;;;19.95;89.24
66176;BME280;52977;44.816;20.538;2023-05-24T07:37:55;99600.84;;;19.82;90.89
66176;BME280;52977;44.816;20.538;2023-05-24T07:40:21;99615.06;;;19.84;91.64
66176;BME280;52977;44.816;20.538;2023-05-24T07:42:47;99594.38;;;19.63;92.00
66176;BME280;52977;44.816;20.538;2023-05-24T07:45:13;99613.41;;;19.72;92.07
66176;BME280;52977;44.816;20.538;2023-05-24T07:47:39;99624.88;;;19.74;91.21
66176;BME280;52977;44.816;20.538;2023-05-24T07:50:05;99625.66;;;19.68;91.67
66176;BME280;52977;44.816;20.538;2023-05-24T07:52:32;99584.28;;;19.34;93.02
66176;BME280;52977;44.816;20.538;2023-05-24T07:54:58;99620.22;;;19.82;92.51
66176;BME280;52977;44.816;20.538;2023-05-24T07:57:24;99531.56;;;19.12;95.38
66176;BME280;52977;44.816;20.538;2023-05-24T07:59:50;99618.09;;;19.61;96.66
66176;BME280;52977;44.816;20.538;2023-05-24T08:02:16;99595.09;;;19.53;96.09
66176;BME280;52977;44.816;20.538;2023-05-24T08:04:42;99624.22;;;19.92;95.30
66176;BME280;52977;44.816;20.538;2023-05-24T08:07:08;99623.72;;;19.75;96.69
66176;BME280;52977;44.816;20.538;2023-05-24T08:09:34;99621.84;;;19.90;95.88
66176;BME280;52977;44.816;20.538;2023-05-24T08:12:04;99613.84;;;19.78;95.49
66176;BME280;52977;44.816;20.538;2023-05-24T08:14:30;99598.75;;;19.68;95.67
66176;BME280;52977;44.816;20.538;2023-05-24T08:16:56;99600.16;;;19.40;98.68
66176;BME280;52977;44.816;20.538;2023-05-24T08:19:22;99634.34;;;19.66;98.54
66176;BME280;52977;44.816;20.538;2023-05-24T08:21:48;99630.84;;;19.76;95.63
66176;BME280;52977;44.816;20.538;2023-05-24T08:24:14;99625.38;;;19.84;94.25
66176;BME280;52977;44.816;20.538;2023-05-24T08:26:40;99594.44;;;19.78;93.08
66176;BME280;52977;44.816;20.538;2023-05-24T08:29:07;99628.91;;;19.84;90.82
66176;BME280;52977;44.816;20.538;2023-05-24T08:31:33;99629.44;;;20.08;89.89
66176;BME280;52977;44.816;20.538;2023-05-24T08:33:59;99615.28;;;20.24;86.84
66176;BME280;52977;44.816;20.538;2023-05-24T08:36:25;99630.41;;;20.48;86.11
66176;BME280;52977;44.816;20.538;2023-05-24T08:38:51;99603.91;;;20.61;83.98
66176;BME280;52977;44.816;20.538;2023-05-24T08:41:16;99624.97;;;20.84;84.29
66176;BME280;52977;44.816;20.538;2023-05-24T08:43:42;99638.41;;;20.75;84.66
66176;BME280;52977;44.816;20.538;2023-05-24T08:46:09;99621.03;;;20.85;83.44
66176;BME280;52977;44.816;20.538;2023-05-24T08:48:54;99603.56;;;20.85;82.79
66176;BME280;52977;44.816;20.538;2023-05-24T08:51:21;99628.94;;;21.08;81.21
66176;BME280;52977;44.816;20.538;2023-05-24T08:53:49;99646.00;;;21.17;79.94
66176;BME280;52977;44.816;20.538;2023-05-24T08:56:17;99618.25;;;21.07;78.52
66176;BME280;52977;44.816;20.538;2023-05-24T08:58:43;99632.13;;;21.25;78.69
66176;BME280;52977;44.816;20.538;2023-05-24T09:01:30;99643.66;;;21.20;77.97
66176;BME280;52977;44.816;20.538;2023-05-24T09:03:58;99620.63;;;21.05;75.78
66176;BME280;52977;44.816;20.538;2023-05-24T09:06:25;99646.81;;;21.32;77.16
66176;BME280;52977;44.816;20.538;2023-05-24T09:08:51;99644.44;;;21.34;76.74
66176;BME280;52977;44.816;20.538;2023-05-24T09:11:19;99636.09;;;21.16;75.26
66176;BME280;52977;44.816;20.538;2023-05-24T09:13:47;99615.47;;;20.92;76.07
66176;BME280;52977;44.816;20.538;2023-05-24T09:16:14;99642.84;;;21.15;77.73
66176;BME280;52977;44.816;20.538;2023-05-24T09:18:40;99657.91;;;21.22;79.05
66176;BME280;52977;44.816;20.538;2023-05-24T09:21:09;99656.34;;;21.17;80.21
66176;BME280;52977;44.816;20.538;2023-05-24T09:23:35;99654.75;;;21.09;80.00
66176;BME280;52977;44.816;20.538;2023-05-24T09:26:08;99656.31;;;21.13;80.53
66176;BME280;52977;44.816;20.538;2023-05-24T09:28:34;99665.03;;;21.19;79.40
66176;BME280;52977;44.816;20.538;2023-05-24T09:31:02;99671.00;;;21.21;78.79
66176;BME280;52977;44.816;20.538;2023-05-24T09:33:29;99665.06;;;21.15;79.38
66176;BME280;52977;44.816;20.538;2023-05-24T09:36:03;99673.38;;;21.23;79.79
66176;BME280;52977;44.816;20.538;2023-05-24T09:38:29;99659.91;;;21.21;78.24
66176;BME280;52977;44.816;20.538;2023-05-24T09:41:04;99674.97;;;21.34;78.56
66176;BME280;52977;44.816;20.538;2023-05-24T09:43:32;99661.47;;;21.47;78.60
66176;BME280;52977;44.816;20.538;2023-05-24T09:46:18;99663.88;;;21.60;78.29
66176;BME280;52977;44.816;20.538;2023-05-24T09:48:55;99605.97;;;21.29;77.32
66176;BME280;52977;44.816;20.538;2023-05-24T09:51:22;99628.56;;;21.64;77.01
66176;BME280;52977;44.816;20.538;2023-05-24T09:53:48;99636.88;;;21.75;78.27
66176;BME280;52977;44.816;20.538;2023-05-24T09:56:17;99660.28;;;21.84;77.46
66176;BME280;52977;44.816;20.538;2023-05-24T09:58:44;99664.66;;;21.78;77.62
66176;BME280;52977;44.816;20.538;2023-05-24T10:01:10;99657.13;;;21.72;77.79
66176;BME280;52977;44.816;20.538;2023-05-24T10:03:52;99534.63;;;20.83;77.29
66176;BME280;52977;44.816;20.538;2023-05-24T10:06:19;99670.66;;;21.59;77.35
66176;BME280;52977;44.816;20.538;2023-05-24T10:08:49;99647.19;;;21.42;78.41
66176;BME280;52977;44.816;20.538;2023-05-24T10:11:17;99660.28;;;21.41;78.93
66176;BME280;52977;44.816;20.538;2023-05-24T10:13:44;99635.69;;;21.29;77.56
66176;BME280;52977;44.816;20.538;2023-05-24T10:16:10;99657.50;;;21.48;77.87
66176;BME280;52977;44.816;20.538;2023-05-24T10:18:36;99655.16;;;21.50;78.33
66176;BME280;52977;44.816;20.538;2023-05-24T10:21:05;99638.47;;;21.40;78.39
66176;BME280;52977;44.816;20.538;2023-05-24T10:23:37;99632.56;;;21.52;79.24
66176;BME280;52977;44.816;20.538;2023-05-24T10:26:07;99666.63;;;21.92;79.72
66176;BME280;52977;44.816;20.538;2023-05-24T10:28:53;99667.75;;;22.13;80.30
66176;BME280;52977;44.816;20.538;2023-05-24T10:31:24;99660.16;;;22.28;81.03
66176;BME280;52977;44.816;20.538;2023-05-24T10:33:55;99568.66;;;21.70;81.01
66176;BME280;52977;44.816;20.538;2023-05-24T10:36:23;99642.25;;;22.43;80.27
66176;BME280;52977;44.816;20.538;2023-05-24T10:38:51;99654.09;;;22.58;81.08
66176;BME280;52977;44.816;20.538;2023-05-24T10:41:18;99648.44;;;22.73;82.91
66176;BME280;52977;44.816;20.538;2023-05-24T10:43:45;99667.88;;;22.80;84.57
66176;BME280;52977;44.816;20.538;2023-05-24T10:46:14;99619.16;;;22.50;84.55
66176;BME280;52977;44.816;20.538;2023-05-24T10:48:41;99658.75;;;22.76;83.51
66176;BME280;52977;44.816;20.538;2023-05-24T10:53:56;99650.59;;;22.43;80.82
66176;BME280;52977;44.816;20.538;2023-05-24T10:56:22;99666.91;;;22.38;80.95
66176;BME280;52977;44.816;20.538;2023-05-24T11:01:28;99668.56;;;22.02;84.96
66176;BME280;52977;44.816;20.538;2023-05-24T11:04:24;99579.78;;;21.30;86.04
66176;BME280;52977;44.816;20.538;2023-05-24T11:07:02;99665.47;;;21.82;87.09
66176;BME280;52977;44.816;20.538;2023-05-24T11:09:28;99661.50;;;21.69;87.88
66176;BME280;52977;44.816;20.538;2023-05-24T11:12:06;99665.47;;;21.72;86.88
66176;BME280;52977;44.816;20.538;2023-05-24T11:14:38;99632.94;;;21.58;85.21
66176;BME280;52977;44.816;20.538;2023-05-24T11:17:06;99663.88;;;21.81;85.00
66176;BME280;52977;44.816;20.538;2023-05-24T11:22:02;99648.03;;;21.60;84.30
66176;BME280;52977;44.816;20.538;2023-05-24T11:24:29;99675.00;;;21.56;85.36
66176;BME280;52977;44.816;20.538;2023-05-24T11:26:56;99637.28;;;21.51;85.36
66176;BME280;52977;44.816;20.538;2023-05-24T11:29:22;99644.06;;;21.58;86.96
66176;BME280;52977;44.816;20.538;2023-05-24T11:34:16;99635.31;;;21.56;87.32
66176;BME280;52977;44.816;20.538;2023-05-24T11:36:43;99630.13;;;21.43;88.63
66176;BME280;52977;44.816;20.538;2023-05-24T11:39:09;99651.59;;;21.61;88.89
66176;BME280;52977;44.816;20.538;2023-05-24T11:41:39;99641.66;;;21.45;91.08
66176;BME280;52977;44.816;20.538;2023-05-24T11:44:06;99639.28;;;21.26;90.45
66176;BME280;52977;44.816;20.538;2023-05-24T11:46:33;99609.50;;;20.90;90.29
66176;BME280;52977;44.816;20.538;2023-05-24T11:49:00;99635.31;;;21.12;90.28
66176;BME280;52977;44.816;20.538;2023-05-24T11:51:30;99626.19;;;20.97;90.75
66176;BME280;52977;44.816;20.538;2023-05-24T11:53:57;99622.59;;;20.90;91.57
66176;BME280;52977;44.816;20.538;2023-05-24T11:56:27;99648.78;;;21.17;90.46
66176;BME280;52977;44.816;20.538;2023-05-24T12:01:43;99604.41;;;20.96;89.84
66176;BME280;52977;44.816;20.538;2023-05-24T12:04:09;99624.22;;;21.16;89.58
66176;BME280;52977;44.816;20.538;2023-05-24T12:06:41;99584.56;;;21.19;86.96
66176;BME280;52977;44.816;20.538;2023-05-24T12:09:09;99629.34;;;21.43;83.93
66176;BME280;52977;44.816;20.538;2023-05-24T12:11:46;99621.03;;;21.39;84.19
66176;BME280;52977;44.816;20.538;2023-05-24T12:14:13;99620.28;;;21.53;80.94
66176;BME280;52977;44.816;20.538;2023-05-24T12:16:44;99615.47;;;21.61;76.43
66176;BME280;52977;44.816;20.538;2023-05-24T12:19:18;99575.00;;;21.42;75.77
66176;BME280;52977;44.816;20.538;2023-05-24T12:21:45;99612.66;;;21.79;75.80
66176;BME280;52977;44.816;20.538;2023-05-24T12:24:16;99585.28;;;21.74;76.21
66176;BME280;52977;44.816;20.538;2023-05-24T12:26:46;99603.88;;;21.98;72.23
66176;BME280;52977;44.816;20.538;2023-05-24T12:29:14;99561.91;;;21.64;72.88
66176;BME280;52977;44.816;20.538;2023-05-24T12:31:46;99590.03;;;21.77;73.37
66176;BME280;52977;44.816;20.538;2023-05-24T12:34:19;99603.50;;;21.89;71.63
66176;BME280;52977;44.816;20.538;2023-05-24T12:36:46;99579.25;;;22.00;71.47
66176;BME280;52977;44.816;20.538;2023-05-24T12:39:20;99589.91;;;22.13;71.84
66176;BME280;52977;44.816;20.538;2023-05-24T12:41:53;99600.91;;;22.49;72.06
66176;BME280;52977;44.816;20.538;2023-05-24T12:44:22;99603.97;;;22.69;69.36
66176;BME280;52977;44.816;20.538;2023-05-24T12:46:53;99554.38;;;22.57;67.20
66176;BME280;52977;44.816;20.538;2023-05-24T12:49:21;99587.09;;;22.94;64.62
66176;BME280;52977;44.816;20.538;2023-05-24T12:51:49;99563.78;;;22.74;64.95
66176;BME280;52977;44.816;20.538;2023-05-24T12:54:18;99593.50;;;22.84;64.22
66176;BME280;52977;44.816;20.538;2023-05-24T12:56:44;99546.47;;;22.48;64.20
66176;BME280;52977;44.816;20.538;2023-05-24T12:59:11;99535.81;;;22.32;64.70
66176;BME280;52977;44.816;20.538;2023-05-24T13:01:37;99594.50;;;22.59;66.70
66176;BME280;52977;44.816;20.538;2023-05-24T13:04:03;99581.84;;;22.44;65.84
66176;BME280;52977;44.816;20.538;2023-05-24T13:06:28;99596.88;;;22.53;66.10
66176;BME280;52977;44.816;20.538;2023-05-24T13:08:55;99591.22;;;22.72;66.14
66176;BME280;52977;44.816;20.538;2023-05-24T13:11:21;99533.66;;;22.61;65.19
66176;BME280;52977;44.816;20.538;2023-05-24T13:13:50;99578.63;;;23.09;64.30
66176;BME280;52977;44.816;20.538;2023-05-24T13:16:16;99582.88;;;23.24;63.41
66176;BME280;52977;44.816;20.538;2023-05-24T13:18:42;99536.94;;;23.01;63.13
66176;BME280;52977;44.816;20.538;2023-05-24T13:21:08;99575.56;;;23.41;61.77
66176;BME280;52977;44.816;20.538;2023-05-24T13:23:34;99567.72;;;23.29;60.40
66176;BME280;52977;44.816;20.538;2023-05-24T13:26:02;99562.50;;;23.34;61.10